地図

経路データ

SID SEASON NUMBER BASIN SUBBASIN NAME ISO_TIME NATURE LAT LON WMO_WIND WMO_PRES WMO_AGENCY TRACK_TYPE DIST2LAND LANDFALL IFLAG USA_AGENCY USA_ATCF_ID USA_LAT USA_LON USA_RECORD USA_STATUS USA_WIND USA_PRES USA_SSHS USA_R34_NE USA_R34_SE USA_R34_SW USA_R34_NW USA_R50_NE USA_R50_SE USA_R50_SW USA_R50_NW USA_R64_NE USA_R64_SE USA_R64_SW USA_R64_NW USA_POCI USA_ROCI USA_RMW USA_EYE TOKYO_LAT TOKYO_LON TOKYO_GRADE TOKYO_WIND TOKYO_PRES TOKYO_R50_DIR TOKYO_R50_LONG TOKYO_R50_SHORT TOKYO_R30_DIR TOKYO_R30_LONG TOKYO_R30_SHORT TOKYO_LAND CMA_LAT CMA_LON CMA_CAT CMA_WIND CMA_PRES HKO_LAT HKO_LON HKO_CAT HKO_WIND HKO_PRES NEWDELHI_LAT NEWDELHI_LON NEWDELHI_GRADE NEWDELHI_WIND NEWDELHI_PRES NEWDELHI_CI NEWDELHI_DP NEWDELHI_POCI REUNION_LAT REUNION_LON REUNION_TYPE REUNION_WIND REUNION_PRES REUNION_TNUM REUNION_CI REUNION_RMW REUNION_R34_NE REUNION_R34_SE REUNION_R34_SW REUNION_R34_NW REUNION_R50_NE REUNION_R50_SE REUNION_R50_SW REUNION_R50_NW REUNION_R64_NE REUNION_R64_SE REUNION_R64_SW REUNION_R64_NW BOM_LAT BOM_LON BOM_TYPE BOM_WIND BOM_PRES BOM_TNUM BOM_CI BOM_RMW BOM_R34_NE BOM_R34_SE BOM_R34_SW BOM_R34_NW BOM_R50_NE BOM_R50_SE BOM_R50_SW BOM_R50_NW BOM_R64_NE BOM_R64_SE BOM_R64_SW BOM_R64_NW BOM_ROCI BOM_POCI BOM_EYE BOM_POS_METHOD BOM_PRES_METHOD NADI_LAT NADI_LON NADI_CAT NADI_WIND NADI_PRES WELLINGTON_LAT WELLINGTON_LON WELLINGTON_WIND WELLINGTON_PRES DS824_LAT DS824_LON DS824_STAGE DS824_WIND DS824_PRES TD9636_LAT TD9636_LON TD9636_STAGE TD9636_WIND TD9636_PRES TD9635_LAT TD9635_LON TD9635_WIND TD9635_PRES TD9635_ROCI NEUMANN_LAT NEUMANN_LON NEUMANN_CLASS NEUMANN_WIND NEUMANN_PRES MLC_LAT MLC_LON MLC_CLASS MLC_WIND MLC_PRES USA_GUST BOM_GUST BOM_GUST_PER REUNION_GUST REUNION_GUST_PER USA_SEAHGT USA_SEARAD_NE USA_SEARAD_SE USA_SEARAD_SW USA_SEARAD_NW STORM_SPEED STORM_DIR
1985252N20333 1985 83 NA NA NOT_NAMED 1985-09-08 12:00:00 TS 20.0000 -27.0000 25 hurdat_atl main 1035 1035 O_____________ hurdat_atl AL061985 20.0000 -27.0000 TD 25 -1 11 299
1985252N20333 1985 83 NA NA NOT_NAMED 1985-09-08 15:00:00 TS 20.2679 -27.5171 main 1083 1083 P_____________ AL061985 20.2679 -27.5171 TD 25 -1 11 298
1985252N20333 1985 83 NA NA NOT_NAMED 1985-09-08 18:00:00 TS 20.5000 -28.0000 25 hurdat_atl main 1134 1134 O_____________ hurdat_atl AL061985 20.5000 -28.0000 TD 25 -1 9 295
1985252N20333 1985 83 NA NA NOT_NAMED 1985-09-08 21:00:00 TS 20.6723 -28.4227 main 1174 1174 P_____________ AL061985 20.6723 -28.4227 TD 25 -1 8 292
1985252N20333 1985 83 NA NA NOT_NAMED 1985-09-09 00:00:00 TS 20.8000 -28.8000 25 hurdat_atl main 1215 1215 O_____________ hurdat_atl AL061985 20.8000 -28.8000 TD 25 -1 7 290
1985252N20333 1985 83 NA NA NOT_NAMED 1985-09-09 03:00:00 TS 20.9147 -29.1351 main 1246 1246 P_____________ AL061985 20.9147 -29.1351 TD 27 -1 7 287
1985252N20333 1985 83 NA NA NOT_NAMED 1985-09-09 06:00:00 TS 21.0000 -29.5000 30 hurdat_atl main 1287 1287 O_____________ hurdat_atl AL061985 21.0000 -29.5000 TD 30 -1 8 280
1985252N20333 1985 83 NA NA NOT_NAMED 1985-09-09 09:00:00 TS 21.0496 -29.9402 main 1329 1329 P_____________ AL061985 21.0496 -29.9402 TD 30 -1 9 276
1985252N20333 1985 83 NA NA NOT_NAMED 1985-09-09 12:00:00 TS 21.1000 -30.5000 30 hurdat_atl main 1391 1391 O_____________ hurdat_atl AL061985 21.1000 -30.5000 TD 30 -1 12 276
1985252N20333 1985 83 NA NA NOT_NAMED 1985-09-09 15:00:00 TS 21.1698 -31.1904 main 1463 1463 P_____________ AL061985 21.1698 -31.1904 TD 30 -1 14 278
1985252N20333 1985 83 NA NA NOT_NAMED 1985-09-09 18:00:00 TS 21.3000 -32.0000 30 hurdat_atl main 1546 1546 O_____________ hurdat_atl AL061985 21.3000 -32.0000 TD 30 -1 16 283
1985252N20333 1985 83 NA NA NOT_NAMED 1985-09-09 21:00:00 TS 21.5503 -32.9068 main 1639 1639 P_____________ AL061985 21.5503 -32.9068 TD 30 -1 17 287
1985252N20333 1985 83 NA NA NOT_NAMED 1985-09-10 00:00:00 TS 21.8000 -33.8000 30 hurdat_atl main 1732 1732 O_____________ hurdat_atl AL061985 21.8000 -33.8000 TD 30 -1 15 283
1985252N20333 1985 83 NA NA NOT_NAMED 1985-09-10 03:00:00 TS 21.8989 -34.5010 main 1804 1804 P_____________ AL061985 21.8989 -34.5010 TD 30 -1 13 279
1985252N20333 1985 83 NA NA NOT_NAMED 1985-09-10 06:00:00 TS 22.0000 -35.2000 30 hurdat_atl main 1876 1876 O_____________ hurdat_atl AL061985 22.0000 -35.2000 TD 30 -1 15 282
1985252N20333 1985 83 NA NA NOT_NAMED 1985-09-10 09:00:00 TS 22.2133 -36.1297 main 1967 1967 P_____________ AL061985 22.2133 -36.1297 TD 30 -1 17 287
1985252N20333 1985 83 NA NA NOT_NAMED 1985-09-10 12:00:00 TS 22.5000 -37.0000 30 hurdat_atl main 2059 2059 O_____________ hurdat_atl AL061985 22.5000 -37.0000 TD 30 -1 15 295
1985252N20333 1985 83 NA NA NOT_NAMED 1985-09-10 15:00:00 TS 22.8266 -37.5605 main 2119 2119 P_____________ AL061985 22.8266 -37.5605 TD 30 -1 12 307
1985252N20333 1985 83 NA NA NOT_NAMED 1985-09-10 18:00:00 TS 23.2000 -38.0000 30 hurdat_atl main 2160 2160 O_____________ hurdat_atl AL061985 23.2000 -38.0000 TD 30 -1 11 311
1985252N20333 1985 83 NA NA NOT_NAMED 1985-09-10 21:00:00 TS 23.5773 -38.5004 main 2211 2211 P_____________ AL061985 23.5773 -38.5004 TD 30 -1 12 311
1985252N20333 1985 83 NA NA NOT_NAMED 1985-09-11 00:00:00 TS 24.0000 -39.0000 30 hurdat_atl main 2260 2260 O_____________ hurdat_atl AL061985 24.0000 -39.0000 TD 30 -1 13 315
1985252N20333 1985 83 NA NA NOT_NAMED 1985-09-11 03:00:00 TS 24.4998 -39.4926 main 2293 2290 P_____________ AL061985 24.4998 -39.4926 TD 30 -1 14 318
1985252N20333 1985 83 NA NA NOT_NAMED 1985-09-11 06:00:00 TS 25.0000 -40.0000 30 hurdat_atl main 2328 2328 O_____________ hurdat_atl AL061985 25.0000 -40.0000 TD 30 -1 13 314
1985252N20333 1985 83 NA NA NOT_NAMED 1985-09-11 09:00:00 TS 25.4225 -40.5577 main 2376 2374 P_____________ AL061985 25.4225 -40.5577 TD 30 -1 13 309
1985252N20333 1985 83 NA NA NOT_NAMED 1985-09-11 12:00:00 TS 25.8000 -41.1000 30 hurdat_atl main 2415 2415 O_____________ hurdat_atl AL061985 25.8000 -41.1000 TD 30 -1 11 310
1985252N20333 1985 83 NA NA NOT_NAMED 1985-09-11 15:00:00 TS 26.1493 -41.5285 main 2448 2445 P_____________ AL061985 26.1493 -41.5285 TD 30 -1 11 311
1985252N20333 1985 83 NA NA NOT_NAMED 1985-09-11 18:00:00 TS 26.5000 -42.0000 30 hurdat_atl main 2445 2382 O_____________ hurdat_atl AL061985 26.5000 -42.0000 TD 30 -1 13 306
1985252N20333 1985 83 NA NA NOT_NAMED 1985-09-11 21:00:00 TS 26.8851 -42.6627 main 2379 2314 P_____________ AL061985 26.8851 -42.6627 TD 30 -1 15 303
1985252N20333 1985 83 NA NA NOT_NAMED 1985-09-12 00:00:00 TS 27.3000 -43.4000 30 hurdat_atl main 2314 2249 O_____________ hurdat_atl AL061985 27.3000 -43.4000 TD 30 -1 16 304
1985252N20333 1985 83 NA NA NOT_NAMED 1985-09-12 03:00:00 TS 27.7499 -44.1151 main 2249 2175 P_____________ AL061985 27.7499 -44.1151 TD 30 -1 15 306
1985252N20333 1985 83 NA NA NOT_NAMED 1985-09-12 06:00:00 TS 28.2000 -44.8000 30 hurdat_atl main 2175 2115 O_____________ hurdat_atl AL061985 28.2000 -44.8000 TD 30 -1 14 306
1985252N20333 1985 83 NA NA NOT_NAMED 1985-09-12 09:00:00 TS 28.5922 -45.4308 main 2115 2056 P_____________ AL061985 28.5922 -45.4308 TD 27 -1 13 307
1985252N20333 1985 83 NA NA NOT_NAMED 1985-09-12 12:00:00 TS 29.0000 -46.0000 25 hurdat_atl main 2056 1992 O_____________ hurdat_atl AL061985 29.0000 -46.0000 TD 25 -1 13 316
1985252N20333 1985 83 NA NA NOT_NAMED 1985-09-12 15:00:00 TS 29.4985 -46.4413 main 1992 1923 P_____________ AL061985 29.4985 -46.4413 TD 25 -1 13 319
1985252N20333 1985 83 NA NA NOT_NAMED 1985-09-12 18:00:00 TS 30.0000 -47.0000 25 hurdat_atl main 1923 1860 O_____________ hurdat_atl AL061985 30.0000 -47.0000 TD 25 -1 16 305
1985252N20333 1985 83 NA NA NOT_NAMED 1985-09-12 21:00:00 TS 30.4468 -47.9838 main 1858 1795 P_____________ AL061985 30.4468 -47.9838 TD 25 -1 19 295
1985252N20333 1985 83 NA NA NOT_NAMED 1985-09-13 00:00:00 TS 30.8000 -49.0000 25 hurdat_atl main 1795 1763 O_____________ hurdat_atl AL061985 30.8000 -49.0000 TD 25 -1 15 291
1985252N20333 1985 83 NA NA NOT_NAMED 1985-09-13 03:00:00 TS 30.9980 -49.6175 main 1763 1733 P_____________ AL061985 30.9980 -49.6175 TD 22 -1 11 291
1985252N20333 1985 83 NA NA NOT_NAMED 1985-09-13 06:00:00 TS 31.2000 -50.2000 20 hurdat_atl main 1733 1691 O_____________ hurdat_atl AL061985 31.2000 -50.2000 TD 20 -1 13 295
1985252N20333 1985 83 NA NA NOT_NAMED 1985-09-13 09:00:00 TS 31.5526 -51.0167 main 1680 1628 P_____________ AL061985 31.5526 -51.0167 TD 20 -1 17 298
1985252N20333 1985 83 NA NA NOT_NAMED 1985-09-13 12:00:00 TS 32.0000 -52.0000 20 hurdat_atl main 1628 O_____________ hurdat_atl AL061985 32.0000 -52.0000 TD 20 -1 19 298

IBTrACS Databaseについて

本データベースは、米国NOAAが公開する1842年以降の世界の熱帯低気圧のベストトラックデータアーカイブInternational Best Track Archive for Climate Stewardship (IBTrACS)を、ウェブで閲覧しやすい形式に変換したものです。

最終更新日:2021-12-01